Time;durP1;ratioP1;P1;durP2;ratioP2;P2;SDS_P1;SDS_P2;PMS_P1;PMS_P2;Temp;Humidity;BMP_temperature;BMP_pressure;BME280_temperature;BME280_humidity;BME280_pressure;Samples;Min_cycle;Max_cycle;Signal;HPM_P1;HPM_P2
2022/05/25 00:02:21;;;;;;;10.90;9.80;;;;;;;;;;5071650;28;20206;-81
2022/05/25 00:04:48;;;;;;;11.10;10.17;;;;;;;;;;5071690;28;20196;-81
2022/05/25 00:07:17;;;;;;;10.70;9.90;;;;;;;;;;5071603;28;20200;-81
2022/05/25 00:09:44;;;;;;;12.37;11.37;;;;;;;;;;5071168;28;20206;-82
2022/05/25 00:12:12;;;;;;;10.40;9.60;;;;;;;;;;5071938;28;20205;-81
2022/05/25 00:14:41;;;;;;;11.67;10.77;;;;;;;;;;5071645;28;20236;-81
2022/05/25 00:17:08;;;;;;;10.97;10.10;;;;;;;;;;5071245;28;20261;-81
2022/05/25 00:22:20;;;;;;;12.17;11.10;;;;;;;;;;5076167;28;20719;-81
2022/05/25 00:24:47;;;;;;;12.57;11.37;;;;;;;;;;5075610;28;20200;-82
2022/05/25 00:27:15;;;;;;;12.33;11.33;;;;;;;;;;5075488;28;20257;-81
2022/05/25 00:29:43;;;;;;;11.47;10.53;;;;;;;;;;5075782;28;20236;-82
2022/05/25 00:32:11;;;;;;;11.70;10.03;;;;;;;;;;5075363;28;20205;-81
2022/05/25 00:34:38;;;;;;;12.97;11.87;;;;;;;;;;5075249;28;20249;-81
2022/05/25 00:37:06;;;;;;;11.07;10.13;;;;;;;;;;5075874;28;20234;-81
2022/05/25 00:39:33;;;;;;;11.83;10.83;;;;;;;;;;5075035;28;20220;-82
2022/05/25 00:42:00;;;;;;;11.77;10.67;;;;;;;;;;5075527;28;20197;-82
2022/05/25 00:44:27;;;;;;;11.43;10.47;;;;;;;;;;5074929;28;20240;-81
2022/05/25 00:46:56;;;;;;;11.07;10.17;;;;;;;;;;5074813;28;20251;-80
2022/05/25 00:49:25;;;;;;;11.33;10.43;;;;;;;;;;5075160;28;20577;-81
2022/05/25 00:51:55;;;;;;;11.43;10.53;;;;;;;;;;5075184;28;20270;-81
2022/05/25 00:54:26;;;;;;;12.40;11.30;;;;;;;;;;5074747;28;20226;-81
2022/05/25 00:56:54;;;;;;;12.10;10.97;;;;;;;;;;5074720;28;20669;-81
2022/05/25 00:59:25;;;;;;;11.57;10.50;;;;;;;;;;5074592;28;20275;-81
2022/05/25 01:01:53;;;;;;;11.57;10.67;;;;;;;;;;5075170;28;20593;-81
2022/05/25 01:04:22;;;;;;;11.13;10.33;;;;;;;;;;5074607;28;20271;-81
2022/05/25 01:07:09;;;;;;;10.67;9.67;;;;;;;;;;5075169;28;20632;-81
2022/05/25 01:09:45;;;;;;;10.40;9.60;;;;;;;;;;5074659;28;20193;-81
2022/05/25 01:12:23;;;;;;;11.30;10.10;;;;;;;;;;5074954;28;20240;-81
2022/05/25 01:15:02;;;;;;;10.80;9.90;;;;;;;;;;5074391;28;20184;-81
2022/05/25 01:17:39;;;;;;;10.47;9.63;;;;;;;;;;5074327;28;20243;-81
2022/05/25 01:20:20;;;;;;;10.00;9.00;;;;;;;;;;5074408;28;20225;-81
2022/05/25 01:23:15;;;;;;;11.37;10.40;;;;;;;;;;5074614;28;20258;-81
2022/05/25 01:26:13;;;;;;;12.10;11.00;;;;;;;;;;5039925;28;20648;-81
2022/05/25 01:28:53;;;;;;;12.73;11.73;;;;;;;;;;5041624;28;20247;-81
2022/05/25 01:31:24;;;;;;;12.43;11.30;;;;;;;;;;5074224;28;20287;-81
2022/05/25 01:33:55;;;;;;;12.97;11.80;;;;;;;;;;5074133;28;20712;-81
2022/05/25 01:36:24;;;;;;;12.33;11.10;;;;;;;;;;5073985;28;20218;-81
2022/05/25 01:38:56;;;;;;;11.53;10.40;;;;;;;;;;5073849;28;20227;-81
2022/05/25 01:41:29;;;;;;;11.00;10.20;;;;;;;;;;5074140;28;20192;-81
2022/05/25 01:43:58;;;;;;;12.17;10.70;;;;;;;;;;5073885;28;20224;-81
2022/05/25 01:46:29;;;;;;;11.57;10.67;;;;;;;;;;5073754;28;20233;-81
2022/05/25 01:48:57;;;;;;;12.37;11.20;;;;;;;;;;5073944;28;20224;-81
2022/05/25 01:51:28;;;;;;;13.03;11.20;;;;;;;;;;5074091;28;20197;-81
2022/05/25 01:53:57;;;;;;;11.40;10.40;;;;;;;;;;5073903;28;20209;-81
2022/05/25 01:56:25;;;;;;;12.03;10.97;;;;;;;;;;5074137;28;20597;-81
2022/05/25 01:58:54;;;;;;;11.07;8.73;;;;;;;;;;5073261;28;20287;-81
2022/05/25 02:01:22;;;;;;;9.63;8.83;;;;;;;;;;5073738;28;20198;-81
2022/05/25 02:07:03;;;;;;;8.93;8.13;;;;;;;;;;5073840;28;20238;-81
2022/05/25 02:09:58;;;;;;;7.70;7.00;;;;;;;;;;5053029;28;20284;-81
2022/05/25 02:12:35;;;;;;;8.77;7.70;;;;;;;;;;5073041;28;20228;-81
2022/05/25 02:15:13;;;;;;;8.33;7.70;;;;;;;;;;5073556;28;20225;-81
2022/05/25 02:17:44;;;;;;;7.53;6.93;;;;;;;;;;5073179;28;20236;-81
2022/05/25 02:20:19;;;;;;;8.07;7.40;;;;;;;;;;5073690;28;20609;-81
2022/05/25 02:22:49;;;;;;;8.13;7.33;;;;;;;;;;5052410;28;20208;-80
2022/05/25 02:25:20;;;;;;;8.17;7.47;;;;;;;;;;5053426;28;20186;-81
2022/05/25 02:27:49;;;;;;;8.80;7.90;;;;;;;;;;5053203;28;20192;-81
2022/05/25 02:30:19;;;;;;;10.37;8.77;;;;;;;;;;5053071;28;20620;-81
2022/05/25 02:32:49;;;;;;;9.70;8.87;;;;;;;;;;5052397;28;20284;-81
2022/05/25 02:35:19;;;;;;;8.20;7.40;;;;;;;;;;5053388;28;20185;-81
2022/05/25 02:37:47;;;;;;;9.33;7.03;;;;;;;;;;5053043;28;20285;-81
2022/05/25 02:40:14;;;;;;;8.67;7.20;;;;;;;;;;5071967;28;20264;-81
2022/05/25 02:42:43;;;;;;;8.10;7.30;;;;;;;;;;5071280;28;20201;-81
2022/05/25 02:45:12;;;;;;;8.70;7.63;;;;;;;;;;5072752;28;20250;-81
2022/05/25 02:47:39;;;;;;;8.30;7.50;;;;;;;;;;5072453;28;20582;-81
2022/05/25 02:50:08;;;;;;;9.47;8.67;;;;;;;;;;5072667;28;20197;-80
2022/05/25 02:52:36;;;;;;;9.73;8.70;;;;;;;;;;5072633;28;20205;-80
2022/05/25 02:55:05;;;;;;;9.27;8.37;;;;;;;;;;5072279;28;20639;-80
2022/05/25 02:57:33;;;;;;;8.80;8.00;;;;;;;;;;5072392;28;20262;-80
2022/05/25 03:00:00;;;;;;;9.47;8.40;;;;;;;;;;5072711;28;20228;-80
2022/05/25 03:02:28;;;;;;;10.83;9.10;;;;;;;;;;5071985;28;20200;-80
2022/05/25 03:04:55;;;;;;;8.83;7.93;;;;;;;;;;5072633;28;20235;-80
2022/05/25 03:07:22;;;;;;;8.43;7.63;;;;;;;;;;5072066;28;20236;-80
2022/05/25 03:09:51;;;;;;;10.07;8.60;;;;;;;;;;5072243;28;20232;-80
2022/05/25 03:12:19;;;;;;;10.07;9.27;;;;;;;;;;5071877;28;20258;-80
2022/05/25 03:14:46;;;;;;;8.87;8.00;;;;;;;;;;5071973;28;20197;-80
2022/05/25 03:17:14;;;;;;;9.30;8.50;;;;;;;;;;5071919;28;20273;-80
2022/05/25 03:19:42;;;;;;;8.33;7.63;;;;;;;;;;5072236;28;20303;-80
2022/05/25 03:22:09;;;;;;;9.33;8.43;;;;;;;;;;5072014;28;20236;-80
2022/05/25 03:24:37;;;;;;;8.60;7.90;;;;;;;;;;5071904;28;20205;-80
2022/05/25 03:27:06;;;;;;;8.23;7.60;;;;;;;;;;5072068;28;20208;-80
2022/05/25 03:29:33;;;;;;;9.00;8.13;;;;;;;;;;5072103;28;20198;-80
2022/05/25 03:32:01;;;;;;;7.60;6.90;;;;;;;;;;5072132;28;20219;-80
2022/05/25 03:34:28;;;;;;;8.27;7.47;;;;;;;;;;5072216;28;20202;-80
2022/05/25 03:36:56;;;;;;;9.10;7.30;;;;;;;;;;5072035;28;20194;-80
2022/05/25 03:39:23;;;;;;;7.63;7.03;;;;;;;;;;5071951;28;20224;-80
2022/05/25 03:41:53;;;;;;;7.50;6.73;;;;;;;;;;5071968;28;20204;-80
2022/05/25 03:44:23;;;;;;;8.50;7.67;;;;;;;;;;5072055;28;20656;-80
2022/05/25 03:46:50;;;;;;;8.53;7.83;;;;;;;;;;5071903;28;20208;-80
2022/05/25 03:49:17;;;;;;;8.90;8.00;;;;;;;;;;5071692;28;20197;-80
2022/05/25 03:51:45;;;;;;;8.30;7.60;;;;;;;;;;5071654;28;20201;-80
2022/05/25 03:54:13;;;;;;;8.23;7.47;;;;;;;;;;5071314;28;20243;-80
2022/05/25 03:56:40;;;;;;;8.20;7.50;;;;;;;;;;5071866;28;20233;-80
2022/05/25 03:59:07;;;;;;;7.13;6.63;;;;;;;;;;5071238;28;20221;-80
2022/05/25 04:01:37;;;;;;;7.57;6.87;;;;;;;;;;5072144;28;20279;-80
2022/05/25 04:04:05;;;;;;;6.63;6.13;;;;;;;;;;5071461;28;20280;-80
2022/05/25 04:06:33;;;;;;;8.57;7.77;;;;;;;;;;5071800;28;20193;-80
2022/05/25 04:09:00;;;;;;;8.40;7.70;;;;;;;;;;5071525;28;20240;-80
2022/05/25 04:11:27;;;;;;;8.97;8.10;;;;;;;;;;5071508;28;20201;-80
2022/05/25 04:13:55;;;;;;;10.97;10.07;;;;;;;;;;5071469;28;20251;-80
2022/05/25 04:16:22;;;;;;;10.37;9.27;;;;;;;;;;5071466;28;20267;-80
2022/05/25 04:18:51;;;;;;;9.33;8.40;;;;;;;;;;5069230;28;20263;-81
2022/05/25 04:21:18;;;;;;;9.07;8.27;;;;;;;;;;5067533;28;20198;-81
2022/05/25 04:23:45;;;;;;;10.13;9.23;;;;;;;;;;5051105;28;20239;-81
2022/05/25 04:26:12;;;;;;;9.97;9.07;;;;;;;;;;5051402;28;20297;-80
2022/05/25 04:28:40;;;;;;;11.00;10.07;;;;;;;;;;5051290;28;20285;-81
2022/05/25 04:31:07;;;;;;;10.10;9.30;;;;;;;;;;5051489;28;20331;-80
2022/05/25 04:33:36;;;;;;;8.97;8.27;;;;;;;;;;5051289;28;20267;-81
2022/05/25 04:36:05;;;;;;;9.73;8.73;;;;;;;;;;5051712;28;20233;-80
2022/05/25 04:38:32;;;;;;;9.63;8.87;;;;;;;;;;5051574;28;20662;-80
2022/05/25 04:41:00;;;;;;;10.60;9.50;;;;;;;;;;5051508;28;20336;-81
2022/05/25 04:43:28;;;;;;;10.20;9.37;;;;;;;;;;5051109;28;20202;-81
2022/05/25 04:45:55;;;;;;;10.47;9.50;;;;;;;;;;5051168;28;20206;-81
2022/05/25 04:48:24;;;;;;;12.73;10.07;;;;;;;;;;5052678;28;20198;-80
2022/05/25 04:50:53;;;;;;;10.80;9.67;;;;;;;;;;5050988;28;20732;-81
2022/05/25 04:53:22;;;;;;;8.60;7.80;;;;;;;;;;5051233;28;20202;-81
2022/05/25 04:58:36;;;;;;;9.67;8.90;;;;;;;;;;5050015;28;20197;-80
2022/05/25 05:01:05;;;;;;;11.03;9.93;;;;;;;;;;5051056;28;20226;-80
2022/05/25 05:03:32;;;;;;;9.97;9.17;;;;;;;;;;5051040;28;20194;-80
2022/05/25 05:06:00;;;;;;;9.23;8.43;;;;;;;;;;5051961;28;20202;-80
2022/05/25 05:08:29;;;;;;;10.03;9.03;;;;;;;;;;5054624;28;20193;-80
2022/05/25 05:10:58;;;;;;;8.60;7.90;;;;;;;;;;5054699;28;20618;-80
2022/05/25 05:13:25;;;;;;;7.63;7.03;;;;;;;;;;5054558;28;20241;-80
2022/05/25 05:15:54;;;;;;;7.60;6.90;;;;;;;;;;5054409;28;20212;-80
2022/05/25 05:18:23;;;;;;;7.40;6.70;;;;;;;;;;5054419;28;20293;-80
2022/05/25 05:20:51;;;;;;;7.47;6.87;;;;;;;;;;5054744;28;20257;-80
2022/05/25 05:23:18;;;;;;;6.63;6.03;;;;;;;;;;5054244;28;20678;-81
2022/05/25 05:25:47;;;;;;;6.37;5.80;;;;;;;;;;5054238;28;20197;-80
2022/05/25 05:28:16;;;;;;;6.13;5.63;;;;;;;;;;5054250;28;20704;-80
2022/05/25 05:30:48;;;;;;;5.67;5.27;;;;;;;;;;5054365;28;20198;-81
2022/05/25 05:33:15;;;;;;;6.87;6.37;;;;;;;;;;5054186;28;20225;-80
2022/05/25 05:35:43;;;;;;;5.83;5.43;;;;;;;;;;5054275;28;20292;-81
2022/05/25 05:38:10;;;;;;;5.10;4.70;;;;;;;;;;5053959;28;20705;-80
2022/05/25 05:40:37;;;;;;;5.40;4.37;;;;;;;;;;5054108;28;20319;-81
2022/05/25 05:43:07;;;;;;;5.37;4.87;;;;;;;;;;5054046;28;20238;-80
2022/05/25 05:45:38;;;;;;;7.57;4.87;;;;;;;;;;5054149;28;20186;-80
2022/05/25 05:48:08;;;;;;;5.37;4.87;;;;;;;;;;5053981;28;20194;-80
2022/05/25 05:50:38;;;;;;;5.23;4.73;;;;;;;;;;5054366;28;20179;-80
2022/05/25 05:53:06;;;;;;;4.93;4.53;;;;;;;;;;5053792;28;20297;-80
2022/05/25 05:55:33;;;;;;;5.83;5.40;;;;;;;;;;5053959;28;20289;-80
2022/05/25 05:58:01;;;;;;;5.60;4.87;;;;;;;;;;5053696;28;20284;-80
2022/05/25 06:00:29;;;;;;;5.27;4.87;;;;;;;;;;5054087;28;20299;-80
2022/05/25 06:02:58;;;;;;;6.13;4.80;;;;;;;;;;5053862;28;20198;-81
2022/05/25 06:05:25;;;;;;;6.00;5.50;;;;;;;;;;5053833;28;20198;-81
2022/05/25 06:07:53;;;;;;;5.93;5.33;;;;;;;;;;5053851;28;20566;-80
2022/05/25 06:10:20;;;;;;;13.37;11.87;;;;;;;;;;5053681;28;20290;-81
2022/05/25 06:12:48;;;;;;;9.10;8.30;;;;;;;;;;5053066;28;20206;-80
2022/05/25 06:20:49;;;;;;;6.07;5.67;;;;;;;;;;5053587;28;20216;-80
2022/05/25 06:23:16;;;;;;;7.03;6.43;;;;;;;;;;5053518;28;20569;-81
2022/05/25 06:25:43;;;;;;;7.00;6.40;;;;;;;;;;5053083;28;20195;-80
2022/05/25 06:28:11;;;;;;;9.40;6.27;;;;;;;;;;5053054;28;20198;-80
2022/05/25 06:30:38;;;;;;;6.53;6.03;;;;;;;;;;5053495;28;20225;-80
2022/05/25 06:33:08;;;;;;;7.63;6.93;;;;;;;;;;5052968;28;20578;-81
2022/05/25 06:35:36;;;;;;;7.10;6.40;;;;;;;;;;5053145;28;20618;-80
2022/05/25 06:38:04;;;;;;;11.03;9.93;;;;;;;;;;5053075;28;20308;-81
2022/05/25 06:40:31;;;;;;;8.07;7.23;;;;;;;;;;5052924;28;20232;-80
2022/05/25 06:42:59;;;;;;;10.00;8.60;;;;;;;;;;5053166;28;20209;-81
2022/05/25 06:45:26;;;;;;;9.17;8.27;;;;;;;;;;5051839;28;20272;-80
2022/05/25 06:47:53;;;;;;;6.70;6.10;;;;;;;;;;5051760;28;20563;-80
2022/05/25 06:50:22;;;;;;;7.20;6.10;;;;;;;;;;5052906;28;20200;-80
2022/05/25 06:52:49;;;;;;;7.67;6.30;;;;;;;;;;5052697;28;20767;-81
2022/05/25 06:55:17;;;;;;;6.70;5.23;;;;;;;;;;5052863;28;20261;-80
2022/05/25 06:57:44;;;;;;;6.70;5.80;;;;;;;;;;5052601;28;20231;-80
2022/05/25 07:00:12;;;;;;;8.37;6.87;;;;;;;;;;5052781;28;20270;-80
2022/05/25 07:02:39;;;;;;;6.47;5.80;;;;;;;;;;5052832;28;20232;-81
2022/05/25 07:05:07;;;;;;;6.40;5.80;;;;;;;;;;5052848;28;20201;-80
2022/05/25 07:07:37;;;;;;;9.27;5.30;;;;;;;;;;5052165;28;20289;-80
2022/05/25 07:10:06;;;;;;;6.23;5.70;;;;;;;;;;5052909;28;20185;-80
2022/05/25 07:12:33;;;;;;;7.47;6.77;;;;;;;;;;5052549;28;20639;-81
2022/05/25 07:15:00;;;;;;;7.87;6.93;;;;;;;;;;5052201;28;20298;-81
2022/05/25 07:17:28;;;;;;;5.63;5.07;;;;;;;;;;5051986;28;20231;-80
2022/05/25 07:19:55;;;;;;;7.00;6.40;;;;;;;;;;5052549;28;20277;-80
2022/05/25 07:22:22;;;;;;;5.87;5.37;;;;;;;;;;5052290;28;20204;-80
2022/05/25 07:24:51;;;;;;;6.30;5.77;;;;;;;;;;5052350;28;20203;-80
2022/05/25 07:27:18;;;;;;;6.90;6.30;;;;;;;;;;5052121;28;20664;-81
2022/05/25 07:29:45;;;;;;;6.60;6.10;;;;;;;;;;5051878;28;20194;-80
2022/05/25 07:32:13;;;;;;;8.50;6.50;;;;;;;;;;5051865;28;20312;-80
2022/05/25 07:34:43;;;;;;;9.13;6.23;;;;;;;;;;5052329;28;20589;-79
2022/05/25 07:37:15;;;;;;;7.13;6.43;;;;;;;;;;5052035;28;20203;-80
2022/05/25 07:39:47;;;;;;;14.13;8.33;;;;;;;;;;5051696;28;20185;-80
2022/05/25 07:42:17;;;;;;;9.37;7.70;;;;;;;;;;5052039;28;20182;-80
2022/05/25 07:44:46;;;;;;;8.40;7.23;;;;;;;;;;5051899;28;20203;-80
2022/05/25 07:47:14;;;;;;;10.67;9.57;;;;;;;;;;5051602;28;20290;-80
2022/05/25 07:49:42;;;;;;;14.50;11.67;;;;;;;;;;5052066;28;20199;-80
2022/05/25 07:52:10;;;;;;;17.57;11.57;;;;;;;;;;5051820;28;20261;-80
2022/05/25 07:54:38;;;;;;;15.70;11.37;;;;;;;;;;5051755;28;20220;-80
2022/05/25 07:57:05;;;;;;;17.87;13.33;;;;;;;;;;5051539;28;20201;-80
2022/05/25 07:59:34;;;;;;;15.23;10.70;;;;;;;;;;5051624;28;20740;-80
2022/05/25 08:07:34;;;;;;;17.77;13.20;;;;;;;;;;5052095;28;20207;-80
2022/05/25 08:10:04;;;;;;;18.20;13.70;;;;;;;;;;5051479;28;20747;-80
2022/05/25 08:12:32;;;;;;;16.23;14.53;;;;;;;;;;5051484;28;20234;-80
2022/05/25 08:15:01;;;;;;;12.97;10.07;;;;;;;;;;5051685;28;20239;-80
2022/05/25 08:17:28;;;;;;;16.10;13.20;;;;;;;;;;5051270;28;20253;-80
2022/05/25 08:19:55;;;;;;;14.97;13.40;;;;;;;;;;5051446;28;20686;-80
2022/05/25 08:22:23;;;;;;;14.60;12.30;;;;;;;;;;5051374;28;20237;-80
2022/05/25 08:24:50;;;;;;;14.87;12.10;;;;;;;;;;5051609;28;20205;-80
2022/05/25 08:27:17;;;;;;;16.37;12.40;;;;;;;;;;5051648;28;20285;-80
2022/05/25 08:29:45;;;;;;;15.13;12.43;;;;;;;;;;5051489;28;20244;-81
2022/05/25 08:32:14;;;;;;;18.43;12.90;;;;;;;;;;5051365;28;20241;-80
2022/05/25 08:34:42;;;;;;;12.50;11.20;;;;;;;;;;5051446;28;20204;-80
2022/05/25 08:37:09;;;;;;;23.63;12.20;;;;;;;;;;5051447;28;20233;-79
2022/05/25 08:39:36;;;;;;;17.17;12.33;;;;;;;;;;5051598;28;20649;-80
2022/05/25 08:42:06;;;;;;;17.13;13.37;;;;;;;;;;5054112;28;20221;-80
2022/05/25 08:44:34;;;;;;;15.37;13.27;;;;;;;;;;5055123;28;20193;-79
2022/05/25 08:47:04;;;;;;;18.70;13.67;;;;;;;;;;5055042;28;20740;-80
2022/05/25 08:49:34;;;;;;;14.50;12.80;;;;;;;;;;5055096;28;20200;-80
2022/05/25 08:52:04;;;;;;;18.27;14.30;;;;;;;;;;5055382;28;20662;-80
2022/05/25 08:54:32;;;;;;;20.10;13.77;;;;;;;;;;5055055;28;20194;-80
2022/05/25 08:57:03;;;;;;;18.73;15.13;;;;;;;;;;5055110;28;20204;-79
2022/05/25 08:59:36;;;;;;;22.03;15.77;;;;;;;;;;5055135;28;20252;-80
2022/05/25 09:02:09;;;;;;;17.10;14.57;;;;;;;;;;5055197;28;20209;-80
2022/05/25 09:04:41;;;;;;;21.40;17.13;;;;;;;;;;5054804;28;20220;-80
2022/05/25 09:07:12;;;;;;;17.53;15.67;;;;;;;;;;5054491;28;20252;-81
2022/05/25 09:09:41;;;;;;;20.23;18.07;;;;;;;;;;5054916;28;20186;-80
2022/05/25 09:12:12;;;;;;;19.43;17.40;;;;;;;;;;5054676;28;20578;-80
2022/05/25 09:14:42;;;;;;;21.90;17.33;;;;;;;;;;5054526;28;20300;-80
2022/05/25 09:17:12;;;;;;;19.93;17.87;;;;;;;;;;5054667;28;20237;-80
2022/05/25 09:19:44;;;;;;;21.27;17.97;;;;;;;;;;5054816;28;20194;-80
2022/05/25 09:22:14;;;;;;;20.67;17.27;;;;;;;;;;5054766;28;20214;-80
2022/05/25 09:24:42;;;;;;;17.93;16.17;;;;;;;;;;5054519;28;20729;-80
2022/05/25 09:27:12;;;;;;;18.17;16.27;;;;;;;;;;5055469;28;20198;-80
2022/05/25 09:29:40;;;;;;;20.27;18.30;;;;;;;;;;5059541;28;20241;-80
2022/05/25 09:32:19;;;;;;;19.43;16.30;;;;;;;;;;5064329;28;20661;-80
2022/05/25 09:34:53;;;;;;;20.77;18.47;;;;;;;;;;5074412;28;20260;-80
2022/05/25 09:37:29;;;;;;;21.57;16.77;;;;;;;;;;5074278;28;20243;-80
2022/05/25 09:39:57;;;;;;;18.40;15.60;;;;;;;;;;5074668;28;20600;-80
2022/05/25 09:42:24;;;;;;;15.70;14.03;;;;;;;;;;5074256;28;20312;-80
2022/05/25 09:44:53;;;;;;;18.43;15.73;;;;;;;;;;5074197;28;20288;-80
2022/05/25 09:47:24;;;;;;;16.43;14.33;;;;;;;;;;5073732;28;20211;-80
2022/05/25 09:49:54;;;;;;;18.33;16.43;;;;;;;;;;5074287;28;20251;-80
2022/05/25 09:52:24;;;;;;;14.93;13.37;;;;;;;;;;5073911;28;20238;-80
2022/05/25 09:54:57;;;;;;;17.20;15.20;;;;;;;;;;5073946;28;20780;-80
2022/05/25 09:57:28;;;;;;;15.93;14.23;;;;;;;;;;5073743;28;20280;-81
2022/05/25 10:00:00;;;;;;;17.27;15.47;;;;;;;;;;5073895;28;20212;-81
2022/05/25 10:02:31;;;;;;;17.07;14.90;;;;;;;;;;5073678;28;20205;-80
2022/05/25 10:05:14;;;;;;;20.97;14.83;;;;;;;;;;5073948;28;20628;-80
2022/05/25 10:07:51;;;;;;;16.80;14.97;;;;;;;;;;5073728;28;20185;-80
2022/05/25 10:10:25;;;;;;;16.87;15.17;;;;;;;;;;5073998;28;20185;-80
2022/05/25 10:13:01;;;;;;;17.43;15.57;;;;;;;;;;5073516;28;20194;-80
2022/05/25 10:15:34;;;;;;;19.00;15.80;;;;;;;;;;5069652;28;20201;-81
2022/05/25 10:18:02;;;;;;;16.90;15.17;;;;;;;;;;5052879;28;20230;-81
2022/05/25 10:20:34;;;;;;;16.87;14.73;;;;;;;;;;5053674;28;20213;-80
2022/05/25 10:23:05;;;;;;;16.03;14.33;;;;;;;;;;5053641;28;20190;-81
2022/05/25 10:25:37;;;;;;;16.80;15.10;;;;;;;;;;5053463;28;20627;-81
2022/05/25 10:37:14;;;;;;;16.37;14.63;;;;;;;;;;5053288;28;20185;-81
2022/05/25 10:39:43;;;;;;;17.97;14.83;;;;;;;;;;5053228;28;20259;-81
2022/05/25 10:42:18;;;;;;;17.90;15.13;;;;;;;;;;5052873;28;20221;-81
2022/05/25 10:45:07;;;;;;;26.17;18.97;;;;;;;;;;5053369;28;20182;-81
2022/05/25 10:47:47;;;;;;;17.17;15.17;;;;;;;;;;5053445;28;20191;-81
2022/05/25 10:50:17;;;;;;;16.60;14.67;;;;;;;;;;5053191;28;20272;-81
2022/05/25 10:52:48;;;;;;;17.27;15.47;;;;;;;;;;5052651;28;20239;-81
2022/05/25 10:55:15;;;;;;;19.40;15.33;;;;;;;;;;5053109;28;20549;-82
2022/05/25 10:58:03;;;;;;;16.57;14.83;;;;;;;;;;5052770;28;20325;-81
2022/05/25 11:00:44;;;;;;;16.33;14.73;;;;;;;;;;5052980;28;20218;-81
2022/05/25 11:03:28;;;;;;;16.93;14.93;;;;;;;;;;5052272;28;20182;-81
2022/05/25 11:05:58;;;;;;;18.87;15.43;;;;;;;;;;5052668;28;20189;-80
2022/05/25 11:08:40;;;;;;;15.77;14.07;;;;;;;;;;5052230;28;20186;-81
2022/05/25 11:11:12;;;;;;;17.53;15.80;;;;;;;;;;5052795;28;20185;-81
2022/05/25 11:13:57;;;;;;;17.53;15.77;;;;;;;;;;5052346;28;20716;-81
2022/05/25 11:16:38;;;;;;;18.57;16.00;;;;;;;;;;5052524;28;20226;-81
2022/05/25 11:19:20;;;;;;;18.07;16.17;;;;;;;;;;5052398;28;20198;-81
2022/05/25 11:21:54;;;;;;;24.53;16.40;;;;;;;;;;5052242;28;20214;-81
2022/05/25 11:24:33;;;;;;;20.60;16.97;;;;;;;;;;5052572;28;20181;-81
2022/05/25 11:27:14;;;;;;;17.87;16.27;;;;;;;;;;5052366;28;20197;-81
2022/05/25 11:29:52;;;;;;;20.83;17.00;;;;;;;;;;5052362;28;20222;-81
2022/05/25 11:32:26;;;;;;;18.97;17.13;;;;;;;;;;5052349;28;20178;-81
2022/05/25 11:35:05;;;;;;;24.27;19.00;;;;;;;;;;5052969;28;20638;-81
2022/05/25 11:37:49;;;;;;;19.10;17.10;;;;;;;;;;5051964;28;20229;-81
2022/05/25 11:40:26;;;;;;;22.07;19.40;;;;;;;;;;5052042;28;20221;-81
2022/05/25 11:43:10;;;;;;;21.83;18.90;;;;;;;;;;5052105;28;20228;-81
2022/05/25 11:45:44;;;;;;;19.87;17.67;;;;;;;;;;5052108;28;20261;-81
2022/05/25 11:48:33;;;;;;;21.10;18.90;;;;;;;;;;5051940;28;20239;-81
2022/05/25 11:51:09;;;;;;;22.43;18.63;;;;;;;;;;5052226;28;20244;-80
2022/05/25 11:53:56;;;;;;;23.30;20.90;;;;;;;;;;5051990;28;20198;-80
2022/05/25 11:56:41;;;;;;;21.40;19.10;;;;;;;;;;5051664;28;20284;-81
2022/05/25 11:59:20;;;;;;;29.77;18.67;;;;;;;;;;5052046;28;20259;-80
2022/05/25 12:01:53;;;;;;;20.83;18.73;;;;;;;;;;5051815;28;20255;-81
2022/05/25 12:04:49;;;;;;;19.23;17.33;;;;;;;;;;5051629;28;20186;-81
2022/05/25 12:07:43;;;;;;;19.70;17.70;;;;;;;;;;5051642;28;20236;-81
2022/05/25 12:10:26;;;;;;;22.07;19.63;;;;;;;;;;5033862;28;20197;-81
2022/05/25 12:12:57;;;;;;;20.53;18.50;;;;;;;;;;5051894;28;20236;-81
2022/05/25 12:15:27;;;;;;;22.77;20.40;;;;;;;;;;5053139;28;20194;-80
2022/05/25 12:18:18;;;;;;;23.20;19.87;;;;;;;;;;5055758;28;20237;-80
2022/05/25 12:20:50;;;;;;;23.33;20.87;;;;;;;;;;5051360;28;20259;-81
2022/05/25 12:23:21;;;;;;;23.07;20.63;;;;;;;;;;5055471;28;20275;-81
2022/05/25 12:25:52;;;;;;;22.40;20.00;;;;;;;;;;5055627;28;20553;-81
2022/05/25 12:28:22;;;;;;;22.40;20.17;;;;;;;;;;5055808;28;20218;-81
2022/05/25 12:30:50;;;;;;;23.10;20.73;;;;;;;;;;5055564;28;20256;-80
2022/05/25 12:33:21;;;;;;;26.23;20.93;;;;;;;;;;5055637;28;20198;-81
2022/05/25 12:35:49;;;;;;;21.30;19.20;;;;;;;;;;5055256;28;20194;-81
2022/05/25 12:38:16;;;;;;;22.80;20.20;;;;;;;;;;5055535;28;20198;-81
2022/05/25 12:40:46;;;;;;;23.10;20.80;;;;;;;;;;5055732;28;20636;-81
2022/05/25 12:43:53;;;;;;;22.83;20.63;;;;;;;;;;5055056;28;20650;-81
2022/05/25 12:49:42;;;;;;;23.40;21.10;;;;;;;;;;5055257;28;20178;-80
2022/05/25 12:52:49;;;;;;;22.30;19.97;;;;;;;;;;5055203;28;20272;-81
2022/05/25 12:55:27;;;;;;;23.37;21.00;;;;;;;;;;5055128;28;20186;-81
2022/05/25 12:57:55;;;;;;;22.23;19.93;;;;;;;;;;5055246;28;20226;-80
2022/05/25 13:00:32;;;;;;;22.60;20.40;;;;;;;;;;5055000;28;20240;-81
2022/05/25 13:03:23;;;;;;;20.47;18.43;;;;;;;;;;5055025;28;20202;-81
2022/05/25 13:05:57;;;;;;;23.30;20.93;;;;;;;;;;5054958;28;20210;-80
2022/05/25 13:09:07;;;;;;;22.13;20.03;;;;;;;;;;5054808;28;20670;-81
2022/05/25 13:11:43;;;;;;;22.53;20.47;;;;;;;;;;5055304;28;20190;-81
2022/05/25 13:14:53;;;;;;;22.77;20.57;;;;;;;;;;5054411;28;20197;-80
2022/05/25 13:17:47;;;;;;;21.43;19.53;;;;;;;;;;4973716;28;20331;-80
2022/05/25 13:20:56;;;;;;;24.13;21.77;;;;;;;;;;4966438;28;20201;-80
2022/05/25 13:24:00;;;;;;;21.47;19.37;;;;;;;;;;4973504;28;20228;-80
2022/05/25 13:26:37;;;;;;;22.83;20.80;;;;;;;;;;4973090;28;20288;-81
2022/05/25 13:29:09;;;;;;;20.57;18.77;;;;;;;;;;4973601;28;20292;-81
2022/05/25 13:31:41;;;;;;;22.63;19.53;;;;;;;;;;4973917;28;20224;-81
2022/05/25 13:34:11;;;;;;;20.20;18.20;;;;;;;;;;4973280;28;20192;-81
2022/05/25 13:36:43;;;;;;;19.93;18.10;;;;;;;;;;4973616;28;20203;-80
2022/05/25 13:39:16;;;;;;;21.07;19.17;;;;;;;;;;4973376;28;20240;-80
2022/05/25 13:41:45;;;;;;;21.13;18.97;;;;;;;;;;4973406;28;20200;-80
2022/05/25 13:44:16;;;;;;;22.60;20.47;;;;;;;;;;4973328;28;20258;-80
2022/05/25 13:46:51;;;;;;;23.03;21.13;;;;;;;;;;4973526;28;20241;-80
2022/05/25 13:49:22;;;;;;;22.57;20.57;;;;;;;;;;5053236;28;20243;-80
2022/05/25 13:51:49;;;;;;;22.40;20.37;;;;;;;;;;5054258;28;20259;-80
2022/05/25 13:54:21;;;;;;;21.50;19.80;;;;;;;;;;5054172;28;20198;-80
2022/05/25 13:56:48;;;;;;;23.73;21.93;;;;;;;;;;5054013;28;20263;-80
2022/05/25 13:59:17;;;;;;;23.50;21.50;;;;;;;;;;5053875;28;20285;-81
2022/05/25 14:01:44;;;;;;;24.40;22.23;;;;;;;;;;5054193;28;20201;-80
2022/05/25 14:04:26;;;;;;;25.40;23.30;;;;;;;;;;5053415;28;20240;-80
2022/05/25 14:06:54;;;;;;;25.17;23.20;;;;;;;;;;5053798;28;20193;-80
2022/05/25 14:12:14;;;;;;;25.20;22.77;;;;;;;;;;5053958;28;20313;-81
2022/05/25 14:14:49;;;;;;;21.10;19.30;;;;;;;;;;5053451;28;20196;-80
2022/05/25 14:17:21;;;;;;;23.53;21.50;;;;;;;;;;5053515;28;20282;-80
2022/05/25 14:19:51;;;;;;;21.40;18.20;;;;;;;;;;5053559;28;20185;-80
2022/05/25 14:22:20;;;;;;;24.10;21.80;;;;;;;;;;5053598;28;20232;-80
2022/05/25 14:24:49;;;;;;;21.97;20.17;;;;;;;;;;5053230;28;20671;-80
2022/05/25 14:27:21;;;;;;;23.70;21.40;;;;;;;;;;5053428;28;20213;-80
2022/05/25 14:29:49;;;;;;;22.13;20.30;;;;;;;;;;5053340;28;20620;-80
2022/05/25 14:32:23;;;;;;;20.93;19.00;;;;;;;;;;5053118;28;20205;-80
2022/05/25 14:34:54;;;;;;;21.50;19.40;;;;;;;;;;5053241;28;20566;-80
2022/05/25 14:37:22;;;;;;;24.53;22.17;;;;;;;;;;5053246;28;20256;-80
2022/05/25 14:39:52;;;;;;;22.53;20.73;;;;;;;;;;5053577;28;20197;-80
2022/05/25 14:42:21;;;;;;;21.83;19.80;;;;;;;;;;5052948;28;20257;-80
2022/05/25 14:44:50;;;;;;;16.57;15.23;;;;;;;;;;5053280;28;20644;-80
2022/05/25 14:47:29;;;;;;;24.27;22.40;;;;;;;;;;5052930;28;20194;-80
2022/05/25 14:50:11;;;;;;;29.73;27.47;;;;;;;;;;5052788;28;20688;-80
2022/05/25 14:52:45;;;;;;;33.00;29.70;;;;;;;;;;5052484;28;20189;-80
2022/05/25 14:55:21;;;;;;;30.83;27.60;;;;;;;;;;5053263;28;20284;-80
2022/05/25 14:57:51;;;;;;;31.53;29.33;;;;;;;;;;5058464;28;20197;-81
2022/05/25 15:00:22;;;;;;;32.00;29.30;;;;;;;;;;5072943;28;20669;-80
2022/05/25 15:02:59;;;;;;;35.03;32.33;;;;;;;;;;5072082;28;20270;-80
2022/05/25 15:05:40;;;;;;;32.90;30.57;;;;;;;;;;5072781;28;20568;-80
2022/05/25 15:08:27;;;;;;;34.27;31.77;;;;;;;;;;5072674;28;20209;-80
2022/05/25 15:10:56;;;;;;;30.50;28.27;;;;;;;;;;5072542;28;20196;-80
2022/05/25 15:18:29;;;;;;;36.33;33.77;;;;;;;;;;5072292;28;20276;-80
2022/05/25 15:19:04;;;;;;;27.87;25.93;;;;;;;;;;5072441;28;20675;-80
2022/05/25 15:21:34;;;;;;;32.10;29.67;;;;;;;;;;5072666;28;20193;-80
2022/05/25 15:24:03;;;;;;;26.07;24.27;;;;;;;;;;5059282;28;20293;-80
2022/05/25 15:26:32;;;;;;;34.47;31.80;;;;;;;;;;5053017;28;20202;-80
2022/05/25 15:29:21;;;;;;;27.60;25.70;;;;;;;;;;5072057;28;20284;-80
2022/05/25 15:31:48;;;;;;;28.43;26.63;;;;;;;;;;5072171;28;20556;-80